Terminal Aerodrome Forecast
Issued by NWS Amarillo, TX

Home | Current Version | Previous Version | Text Only | Print | Product List | Glossary On
Versions: 1 2 3 4 5 6 7 8 9 10 11 12 13
000
FTUS44 KAMA 241141
TAFGUY
TAF
KGUY 241141Z 2412/2512 20009KT P6SM BKN100 OVC300
     FM241500 26010KT P6SM SCT100 BKN300
     FM242000 08009KT P6SM SCT060 BKN120 PROB30 2422/2504 5SM TSRA
      BKN040CB
     FM250400 03009KT P6SM OVC070=

USA.gov is the U.S. government's official web portal to all federal, state and local government web resources and services.